createdAt,value
2022-08-21T00:02:22.080Z,10.00
2022-08-21T00:06:24.913Z,6.53
2022-08-21T00:10:27.433Z,7.78
2022-08-21T00:14:31.999Z,6.75
2022-08-21T00:18:34.524Z,6.97
2022-08-21T00:22:37.966Z,8.45
2022-08-21T00:26:40.086Z,6.68
2022-08-21T00:30:43.511Z,6.57
2022-08-21T00:34:45.540Z,5.68
2022-08-21T00:38:47.778Z,6.28
2022-08-21T00:42:53.741Z,6.95
2022-08-21T00:46:56.027Z,7.15
2022-08-21T00:51:03.475Z,5.90
2022-08-21T00:55:09.286Z,5.75
2022-08-21T00:59:12.073Z,9.37
2022-08-21T01:03:16.611Z,8.93
2022-08-21T01:07:18.934Z,9.93
2022-08-21T01:11:22.355Z,6.80
2022-08-21T01:15:28.098Z,7.07
2022-08-21T01:19:30.936Z,6.43
2022-08-21T01:23:34.158Z,7.20
2022-08-21T01:27:37.087Z,6.28
2022-08-21T01:31:39.825Z,7.47
2022-08-21T01:35:41.930Z,6.35
2022-08-21T01:39:44.653Z,6.68
2022-08-21T01:43:47.077Z,5.90
2022-08-21T01:47:49.209Z,5.88
2022-08-21T01:51:51.548Z,7.47
2022-08-21T01:55:53.701Z,7.18
2022-08-21T01:59:55.824Z,6.57
2022-08-21T02:03:58.161Z,8.88
2022-08-21T02:08:00.288Z,7.80
2022-08-21T02:12:02.453Z,7.88
2022-08-21T02:16:05.208Z,9.77
2022-08-21T02:20:08.221Z,9.45
2022-08-21T02:24:12.439Z,8.32
2022-08-21T02:28:15.765Z,6.47
2022-08-21T02:32:17.981Z,6.82
2022-08-21T02:36:20.206Z,7.78
2022-08-21T02:40:25.214Z,7.65
2022-08-21T02:44:34.428Z,6.15
2022-08-21T02:48:37.728Z,7.35
2022-08-21T02:52:39.820Z,7.32
2022-08-21T02:56:41.930Z,6.05
2022-08-21T03:00:45.147Z,9.65
2022-08-21T03:04:47.205Z,7.65
2022-08-21T03:08:50.400Z,9.60
2022-08-21T03:12:52.847Z,6.88
2022-08-21T03:16:54.922Z,7.97
2022-08-21T03:20:57.029Z,8.93
2022-08-21T03:25:00.264Z,7.15
2022-08-21T03:29:02.373Z,6.68
2022-08-21T03:33:04.831Z,8.48
2022-08-21T03:37:08.181Z,10.10
2022-08-21T03:41:10.270Z,8.55
2022-08-21T03:45:12.339Z,6.50
2022-08-21T03:49:14.426Z,7.43
2022-08-21T03:53:18.043Z,6.10
2022-08-21T03:57:20.280Z,5.78
2022-08-21T04:01:22.493Z,7.38
2022-08-21T04:05:31.074Z,6.30
2022-08-21T04:09:33.152Z,6.47
2022-08-21T04:13:35.379Z,9.07
2022-08-21T04:17:46.505Z,9.00
2022-08-21T04:21:48.568Z,7.60
2022-08-21T04:25:52.426Z,9.05
2022-08-21T04:29:54.497Z,7.47
2022-08-21T04:33:57.878Z,8.55
2022-08-21T04:38:00.077Z,8.55
2022-08-21T04:42:02.181Z,5.65
2022-08-21T04:46:04.347Z,7.50
2022-08-21T04:50:06.972Z,6.10
2022-08-21T04:54:19.873Z,8.35
2022-08-21T04:58:26.362Z,6.90
2022-08-21T05:02:28.431Z,5.47
2022-08-21T05:06:34.796Z,7.50
2022-08-21T05:10:36.938Z,7.30
2022-08-21T05:14:39.269Z,9.02
2022-08-21T05:18:41.340Z,11.05
2022-08-21T05:22:43.747Z,6.80
2022-08-21T05:26:47.043Z,7.38
2022-08-21T05:30:50.492Z,5.70
2022-08-21T05:34:52.603Z,8.13
2022-08-21T05:38:54.867Z,5.28
2022-08-21T05:42:57.938Z,7.75
2022-08-21T05:47:08.668Z,5.60
2022-08-21T05:51:14.725Z,7.45
2022-08-21T05:55:16.840Z,6.38
2022-08-21T05:59:19.180Z,5.93
2022-08-21T06:03:25.351Z,8.02
2022-08-21T06:07:27.625Z,5.20
2022-08-21T06:11:29.748Z,4.28
2022-08-21T06:15:31.817Z,4.97
2022-08-21T06:19:34.319Z,6.68
2022-08-21T06:23:36.679Z,5.25
2022-08-21T06:27:39.004Z,4.75
2022-08-21T06:31:41.693Z,6.13
2022-08-21T06:35:43.823Z,6.30
2022-08-21T06:39:45.956Z,6.93
2022-08-21T06:43:48.184Z,7.50
2022-08-21T06:47:50.343Z,5.20
2022-08-21T06:51:52.446Z,7.00
2022-08-21T06:55:54.532Z,6.75
2022-08-21T06:59:56.607Z,5.95
2022-08-21T07:03:59.416Z,6.97
2022-08-21T07:08:01.523Z,8.70
2022-08-21T07:12:04.312Z,7.40
2022-08-21T07:16:06.664Z,8.07
2022-08-21T07:20:09.066Z,8.13
2022-08-21T07:24:11.427Z,9.52
2022-08-21T07:28:13.546Z,9.20
2022-08-21T07:32:19.615Z,4.50
2022-08-21T07:36:23.663Z,8.05
2022-08-21T07:40:26.271Z,7.40
2022-08-21T07:44:28.564Z,6.85
2022-08-21T07:48:30.636Z,8.63
2022-08-21T07:52:33.638Z,6.35
2022-08-21T07:56:35.767Z,9.40
2022-08-21T08:00:37.940Z,9.50
2022-08-21T08:04:50.635Z,9.07
2022-08-21T08:08:53.196Z,9.77
2022-08-21T08:12:55.728Z,7.85
2022-08-21T08:16:58.028Z,8.82
2022-08-21T08:21:00.378Z,9.15
2022-08-21T08:25:06.418Z,7.07
2022-08-21T08:29:11.358Z,5.65
2022-08-21T08:33:14.966Z,7.80
2022-08-21T08:37:17.323Z,7.57
2022-08-21T08:41:23.660Z,8.45
2022-08-21T08:45:27.303Z,8.65
2022-08-21T08:49:41.215Z,5.72
2022-08-21T08:53:50.428Z,10.00
2022-08-21T08:57:54.123Z,6.78
2022-08-21T09:01:56.203Z,5.78
2022-08-21T09:06:09.438Z,8.88
2022-08-21T09:10:19.021Z,7.13
2022-08-21T09:14:47.340Z,7.38
2022-08-21T09:19:04.172Z,7.65
2022-08-21T09:23:24.893Z,7.28
2022-08-21T09:27:26.940Z,5.55
2022-08-21T09:31:33.489Z,8.48
2022-08-21T09:35:38.071Z,5.88
2022-08-21T09:39:45.583Z,7.45
2022-08-21T09:43:54.722Z,6.70
2022-08-21T09:47:56.932Z,5.97
2022-08-21T09:52:00.414Z,9.88
2022-08-21T09:56:35.810Z,5.10
2022-08-21T10:00:38.252Z,6.85
2022-08-21T10:04:42.657Z,6.63
2022-08-21T10:08:44.782Z,4.63
2022-08-21T10:13:25.768Z,5.05
2022-08-21T10:17:45.963Z,10.73
2022-08-21T10:22:08.109Z,5.05
2022-08-21T10:26:36.971Z,6.35
2022-08-21T10:30:53.808Z,5.93
2022-08-21T10:35:11.174Z,5.22
2022-08-21T10:39:35.815Z,5.65
2022-08-21T10:43:54.737Z,4.85
2022-08-21T10:48:04.932Z,3.78
2022-08-21T10:52:34.694Z,5.95
2022-08-21T10:56:41.454Z,3.53
2022-08-21T11:00:48.319Z,4.05
2022-08-21T11:05:03.434Z,3.70
2022-08-21T11:09:18.455Z,3.38
2022-08-21T11:13:42.598Z,4.15
2022-08-21T11:17:51.498Z,3.40
2022-08-21T11:22:01.360Z,3.05
2022-08-21T11:26:09.740Z,4.78
2022-08-21T11:30:13.022Z,6.70
2022-08-21T11:34:23.901Z,4.28
2022-08-21T11:38:35.766Z,2.78
2022-08-21T11:42:40.819Z,4.18
2022-08-21T11:46:54.871Z,5.13
2022-08-21T11:50:59.118Z,3.95
2022-08-21T11:55:23.678Z,5.93
2022-08-21T11:59:44.201Z,2.85
2022-08-21T12:04:07.440Z,3.35
2022-08-21T12:08:28.690Z,3.97
2022-08-21T12:12:36.886Z,3.78
2022-08-21T12:16:47.319Z,5.45
2022-08-21T12:21:06.143Z,2.33
2022-08-21T12:25:12.344Z,2.17
2022-08-21T12:29:24.904Z,2.80
2022-08-21T12:33:32.922Z,3.45
2022-08-21T12:37:42.121Z,2.35
2022-08-21T12:42:06.414Z,2.65
2022-08-21T12:46:18.190Z,1.83
2022-08-21T12:50:39.081Z,2.63
2022-08-21T12:54:43.200Z,4.70
2022-08-21T12:58:47.970Z,2.38
2022-08-21T13:02:51.894Z,4.75
2022-08-21T13:06:56.183Z,2.20
2022-08-21T13:11:09.159Z,2.97
2022-08-21T13:15:22.929Z,3.00
2022-08-21T13:19:27.720Z,3.80
2022-08-21T13:23:31.133Z,5.13
2022-08-21T13:27:33.187Z,3.33
2022-08-21T13:31:35.274Z,3.03
2022-08-21T13:35:48.486Z,4.70
2022-08-21T13:39:53.277Z,2.95
2022-08-21T13:44:03.274Z,2.97
2022-08-21T13:48:06.849Z,3.50
2022-08-21T13:52:26.644Z,4.47
2022-08-21T13:56:33.890Z,3.05
2022-08-21T14:00:49.658Z,3.03
2022-08-21T14:05:01.000Z,1.85
2022-08-21T14:09:11.417Z,2.55
2022-08-21T14:13:35.863Z,2.55
2022-08-21T14:17:42.570Z,1.37
2022-08-21T14:21:45.239Z,1.90
2022-08-21T14:25:47.344Z,2.08
2022-08-21T14:29:49.451Z,1.65
2022-08-21T14:33:51.608Z,2.05
2022-08-21T14:37:55.066Z,1.90
2022-08-21T14:41:58.508Z,3.03
2022-08-21T14:46:02.225Z,2.83
2022-08-21T14:50:04.628Z,3.25
2022-08-21T14:54:08.233Z,2.65
2022-08-21T14:58:10.691Z,1.55
2022-08-21T15:02:12.858Z,1.90
2022-08-21T15:06:18.440Z,2.20
2022-08-21T15:10:20.542Z,2.40
2022-08-21T15:14:28.559Z,3.00
2022-08-21T15:18:31.353Z,1.75
2022-08-21T15:22:34.455Z,2.05
2022-08-21T15:26:37.467Z,2.40
2022-08-21T15:30:41.139Z,2.65
2022-08-21T15:34:43.226Z,1.75
2022-08-21T15:38:46.201Z,3.08
2022-08-21T15:42:48.341Z,2.60
2022-08-21T15:46:50.423Z,2.53
2022-08-21T15:50:52.488Z,2.17
2022-08-21T15:54:55.151Z,1.63
2022-08-21T15:59:13.091Z,2.97
2022-08-21T16:03:20.677Z,4.10
2022-08-21T16:07:22.916Z,2.22
2022-08-21T16:11:25.443Z,1.70
2022-08-21T16:15:27.997Z,3.05
2022-08-21T16:19:30.221Z,1.70
2022-08-21T16:23:32.249Z,2.58
2022-08-21T16:27:35.788Z,1.67
2022-08-21T16:31:40.014Z,1.45
2022-08-21T16:35:42.083Z,3.63
2022-08-21T16:39:44.754Z,1.10
2022-08-21T16:43:48.702Z,1.60
2022-08-21T16:47:51.339Z,2.28
2022-08-21T16:51:53.436Z,2.22
2022-08-21T16:55:55.528Z,1.52
2022-08-21T16:59:57.758Z,2.28
2022-08-21T17:04:00.532Z,1.92
2022-08-21T17:08:02.815Z,2.45
2022-08-21T17:12:05.924Z,2.90
2022-08-21T17:16:08.106Z,2.63
2022-08-21T17:20:10.561Z,2.75
2022-08-21T17:24:15.404Z,2.13
2022-08-21T17:28:23.584Z,1.40
2022-08-21T17:32:25.903Z,2.35
2022-08-21T17:36:30.077Z,4.18
2022-08-21T17:40:32.231Z,4.53
2022-08-21T17:44:41.338Z,2.97
2022-08-21T17:48:47.293Z,3.97
2022-08-21T17:52:49.885Z,2.70
2022-08-21T17:56:52.917Z,2.95
2022-08-21T18:00:55.142Z,1.80
2022-08-21T18:04:58.184Z,2.97
2022-08-21T18:09:00.681Z,3.58
2022-08-21T18:13:05.811Z,3.08
2022-08-21T18:17:18.385Z,1.40
2022-08-21T18:21:21.048Z,4.68
2022-08-21T18:25:23.322Z,2.78
2022-08-21T18:29:25.485Z,1.38
2022-08-21T18:33:27.924Z,2.17
2022-08-21T18:37:30.081Z,2.63
2022-08-21T18:41:32.227Z,4.30
2022-08-21T18:45:36.917Z,2.05
2022-08-21T18:49:39.051Z,3.60
2022-08-21T18:53:43.189Z,2.08
2022-08-21T18:57:48.770Z,2.50
2022-08-21T19:01:50.857Z,4.00
2022-08-21T19:05:54.139Z,2.85
2022-08-21T19:10:24.252Z,3.55
2022-08-21T19:14:18.545Z,2.75
2022-08-21T19:18:28.233Z,2.80
2022-08-21T19:22:30.830Z,2.75
2022-08-21T19:26:34.801Z,2.45
2022-08-21T19:30:39.249Z,1.75
2022-08-21T19:34:42.662Z,2.50
2022-08-21T19:38:44.904Z,2.40
2022-08-21T19:42:47.169Z,2.88
2022-08-21T19:46:52.041Z,1.75
2022-08-21T19:50:54.094Z,4.28
2022-08-21T19:54:56.209Z,1.58
2022-08-21T19:58:58.597Z,3.17
2022-08-21T20:03:00.997Z,1.88
2022-08-21T20:07:04.520Z,4.38
2022-08-21T20:11:13.118Z,3.20
2022-08-21T20:15:21.808Z,2.95
2022-08-21T20:19:23.881Z,1.77
2022-08-21T20:23:30.024Z,3.58
2022-08-21T20:27:32.694Z,2.05
2022-08-21T20:31:42.806Z,2.30
2022-08-21T20:35:48.479Z,2.90
2022-08-21T20:39:50.858Z,3.22
2022-08-21T20:43:56.830Z,2.50
2022-08-21T20:48:04.378Z,4.20
2022-08-21T20:52:07.737Z,2.83
2022-08-21T20:56:37.212Z,2.00
2022-08-21T21:00:43.572Z,3.00
2022-08-21T21:05:00.242Z,2.77
2022-08-21T21:09:13.616Z,2.25
2022-08-21T21:13:22.909Z,4.72
2022-08-21T21:17:38.321Z,3.00
2022-08-21T21:21:56.866Z,1.45
2022-08-21T21:26:06.798Z,3.45
2022-08-21T21:30:12.046Z,1.65
2022-08-21T21:34:16.951Z,2.25
2022-08-21T21:38:51.658Z,2.53
2022-08-21T21:43:10.156Z,2.60
2022-08-21T21:47:36.365Z,1.35
2022-08-21T21:51:51.632Z,1.25
2022-08-21T21:56:09.237Z,4.70
2022-08-21T22:00:19.295Z,2.05
2022-08-21T22:04:39.269Z,1.63
2022-08-21T22:09:09.329Z,1.92
2022-08-21T22:13:26.684Z,2.22
2022-08-21T22:17:34.458Z,1.67
2022-08-21T22:21:42.477Z,2.00
2022-08-21T22:25:50.128Z,1.30
2022-08-21T22:29:57.344Z,2.40
2022-08-21T22:38:40.932Z,1.98
2022-08-21T22:42:43.139Z,2.08
2022-08-21T22:46:51.422Z,1.40
2022-08-21T22:51:00.666Z,1.40
2022-08-21T22:55:16.879Z,2.17
2022-08-21T22:59:31.905Z,1.55
2022-08-21T23:03:57.216Z,3.33
2022-08-21T23:08:14.123Z,1.33
2022-08-21T23:12:33.927Z,1.50
2022-08-21T23:16:53.747Z,2.78
2022-08-21T23:21:19.000Z,1.60
2022-08-21T23:25:21.010Z,1.98
2022-08-21T23:29:41.893Z,1.23
2022-08-21T23:34:07.165Z,1.38
2022-08-21T23:38:23.015Z,2.78
2022-08-21T23:42:47.277Z,1.35
2022-08-21T23:47:03.911Z,3.08
2022-08-21T23:51:13.068Z,1.98
2022-08-21T23:55:24.753Z,1.77
2022-08-21T23:59:55.680Z,2.72
